createdAt,value
2023-02-07T00:01:33.257Z,13.52
2023-02-07T00:04:01.854Z,14.87
2023-02-07T00:06:32.315Z,13.57
2023-02-07T00:09:02.465Z,19.15
2023-02-07T00:11:30.708Z,13.55
2023-02-07T00:13:59.186Z,11.73
2023-02-07T00:16:27.909Z,12.05
2023-02-07T00:18:59.708Z,11.70
2023-02-07T00:21:30.242Z,15.30
2023-02-07T00:23:58.495Z,13.85
2023-02-07T00:26:27.468Z,13.95
2023-02-07T00:28:56.369Z,10.77
2023-02-07T00:31:26.147Z,12.98
2023-02-07T00:33:56.861Z,15.13
2023-02-07T00:36:26.480Z,11.38
2023-02-07T00:39:02.399Z,13.25
2023-02-07T00:41:31.250Z,9.48
2023-02-07T00:44:00.669Z,12.80
2023-02-07T00:46:29.503Z,12.55
2023-02-07T00:48:57.908Z,13.45
2023-02-07T00:51:28.467Z,15.98
2023-02-07T00:53:56.756Z,17.30
2023-02-07T00:56:28.547Z,12.98
2023-02-07T00:58:59.719Z,13.27
2023-02-07T01:01:28.063Z,11.07
2023-02-07T01:03:57.203Z,17.90
2023-02-07T01:06:25.870Z,12.48
2023-02-07T01:08:59.182Z,16.37
2023-02-07T01:11:29.368Z,13.52
2023-02-07T01:14:01.557Z,13.80
2023-02-07T01:16:32.681Z,13.40
2023-02-07T01:19:07.550Z,17.27
2023-02-07T01:21:35.340Z,15.48
2023-02-07T01:24:06.790Z,16.25
2023-02-07T01:26:36.209Z,13.80
2023-02-07T01:29:04.677Z,13.82
2023-02-07T01:31:32.366Z,11.82
2023-02-07T01:34:00.605Z,13.13
2023-02-07T01:36:29.969Z,13.80
2023-02-07T01:38:58.007Z,13.93
2023-02-07T01:41:27.851Z,10.27
2023-02-07T01:44:21.883Z,15.10
2023-02-07T01:46:51.405Z,15.35
2023-02-07T01:49:29.146Z,14.05
2023-02-07T01:52:00.015Z,14.38
2023-02-07T01:54:32.386Z,13.30
2023-02-07T01:57:06.092Z,12.68
2023-02-07T01:59:38.794Z,10.05
2023-02-07T02:02:06.942Z,11.00
2023-02-07T02:04:34.894Z,10.38
2023-02-07T02:07:04.199Z,10.65
2023-02-07T02:09:32.005Z,15.07
2023-02-07T02:12:08.533Z,14.93
2023-02-07T02:15:10.467Z,13.02
2023-02-07T02:17:56.968Z,13.35
2023-02-07T02:20:47.487Z,14.48
2023-02-07T02:23:40.031Z,11.75
2023-02-07T02:26:53.505Z,12.15
2023-02-07T02:30:00.101Z,10.80
2023-02-07T02:32:48.949Z,13.05
2023-02-07T02:35:30.446Z,11.32
2023-02-07T02:38:25.219Z,12.88
2023-02-07T02:41:02.143Z,11.48
2023-02-07T02:43:42.578Z,15.02
2023-02-07T02:46:21.474Z,13.23
2023-02-07T02:48:51.379Z,9.90
2023-02-07T02:51:19.322Z,14.02
2023-02-07T02:53:57.121Z,11.07
2023-02-07T02:56:51.890Z,13.57
2023-02-07T02:59:37.129Z,11.25
2023-02-07T03:02:16.150Z,9.60
2023-02-07T03:05:11.074Z,12.55
2023-02-07T03:08:12.794Z,14.15
2023-02-07T03:11:00.224Z,11.15
2023-02-07T03:14:06.773Z,10.90
2023-02-07T03:17:18.723Z,11.98
2023-02-07T03:19:57.543Z,16.45
2023-02-07T03:22:27.519Z,13.88
2023-02-07T03:24:58.893Z,11.15
2023-02-07T03:27:30.548Z,9.10
2023-02-07T03:30:02.358Z,11.55
2023-02-07T03:32:35.169Z,12.25
2023-02-07T03:35:20.522Z,15.18
2023-02-07T03:37:57.916Z,15.05
2023-02-07T03:40:29.611Z,13.62
2023-02-07T03:43:05.771Z,10.13
2023-02-07T03:45:34.166Z,14.15
2023-02-07T03:48:01.862Z,11.45
2023-02-07T03:50:30.419Z,17.20
2023-02-07T03:52:58.451Z,12.32
2023-02-07T03:55:26.125Z,13.48
2023-02-07T03:57:53.873Z,15.55
2023-02-07T04:00:22.050Z,13.57
2023-02-07T04:02:49.983Z,13.18
2023-02-07T04:05:17.701Z,12.55
2023-02-07T04:07:46.122Z,13.57
2023-02-07T04:10:19.908Z,14.02
2023-02-07T04:12:47.622Z,14.10
2023-02-07T04:15:15.628Z,19.95
2023-02-07T04:17:43.192Z,13.20
2023-02-07T04:20:12.274Z,14.13
2023-02-07T04:22:43.048Z,13.60
2023-02-07T04:25:10.639Z,13.43
2023-02-07T04:27:38.265Z,11.52
2023-02-07T04:30:06.716Z,12.88
2023-02-07T04:32:35.547Z,14.00
2023-02-07T04:35:03.263Z,14.07
2023-02-07T04:37:31.287Z,16.95
2023-02-07T04:39:58.876Z,12.25
2023-02-07T04:42:27.621Z,15.73
2023-02-07T04:44:55.552Z,12.85
2023-02-07T04:47:23.123Z,15.63
2023-02-07T04:49:56.774Z,19.30
2023-02-07T04:52:24.653Z,14.90
2023-02-07T04:54:52.197Z,12.65
2023-02-07T04:57:19.731Z,16.48
2023-02-07T04:59:47.817Z,13.93
2023-02-07T05:02:15.538Z,14.52
2023-02-07T05:04:43.199Z,13.07
2023-02-07T05:07:11.175Z,12.70
2023-02-07T05:09:38.805Z,14.18
2023-02-07T05:12:06.756Z,14.68
2023-02-07T05:14:34.632Z,14.20
2023-02-07T05:17:02.327Z,12.65
2023-02-07T05:19:30.193Z,11.88
2023-02-07T05:21:58.158Z,15.25
2023-02-07T05:24:25.722Z,11.48
2023-02-07T05:26:53.260Z,17.58
2023-02-07T05:29:21.261Z,19.40
2023-02-07T05:32:07.525Z,12.18
2023-02-07T05:34:35.618Z,13.38
2023-02-07T05:37:03.312Z,10.65
2023-02-07T05:39:32.216Z,14.75
2023-02-07T05:42:00.095Z,15.75
2023-02-07T05:44:27.756Z,12.82
2023-02-07T05:46:55.444Z,13.15
2023-02-07T05:49:23.373Z,14.95
2023-02-07T05:51:51.091Z,13.70
2023-02-07T05:54:18.723Z,15.43
2023-02-07T05:56:46.721Z,17.20
2023-02-07T05:59:14.347Z,13.95
2023-02-07T06:01:42.015Z,19.40
2023-02-07T06:04:10.209Z,16.23
2023-02-07T06:06:37.831Z,15.85
2023-02-07T06:09:05.636Z,16.48
2023-02-07T06:11:34.034Z,13.40
2023-02-07T06:14:01.714Z,16.80
2023-02-07T06:16:29.563Z,13.32
2023-02-07T06:18:57.761Z,14.00
2023-02-07T06:21:32.000Z,14.43
2023-02-07T06:24:06.372Z,14.60
2023-02-07T06:26:34.341Z,13.27
2023-02-07T06:29:02.179Z,14.93
2023-02-07T06:31:30.279Z,16.42
2023-02-07T06:33:58.037Z,20.85
2023-02-07T06:36:25.667Z,14.07
2023-02-07T06:38:55.530Z,15.95
2023-02-07T06:41:23.287Z,12.60
2023-02-07T06:43:50.853Z,14.85
2023-02-07T06:46:18.849Z,15.57
2023-02-07T06:48:46.432Z,10.55
2023-02-07T06:51:14.297Z,10.95
2023-02-07T06:53:42.214Z,13.48
2023-02-07T06:56:09.848Z,15.93
2023-02-07T06:58:37.619Z,12.48
2023-02-07T07:01:05.766Z,18.27
2023-02-07T07:03:34.645Z,12.90
2023-02-07T07:06:02.338Z,14.43
2023-02-07T07:08:30.318Z,11.82
2023-02-07T07:10:58.496Z,13.23
2023-02-07T07:13:26.230Z,19.45
2023-02-07T07:15:54.229Z,12.13
2023-02-07T07:18:21.882Z,13.15
2023-02-07T07:20:54.148Z,14.82
2023-02-07T07:23:22.290Z,12.40
2023-02-07T07:25:50.228Z,17.40
2023-02-07T07:28:17.984Z,15.80
2023-02-07T07:30:46.046Z,15.90
2023-02-07T07:33:13.861Z,15.10
2023-02-07T07:35:41.877Z,17.35
2023-02-07T07:38:10.008Z,14.45
2023-02-07T07:40:37.885Z,16.65
2023-02-07T07:43:06.059Z,15.45
2023-02-07T07:45:35.342Z,12.93
2023-02-07T07:48:03.737Z,12.35
2023-02-07T07:50:31.400Z,16.92
2023-02-07T07:52:59.487Z,14.02
2023-02-07T07:55:28.209Z,13.80
2023-02-07T07:57:56.239Z,16.33
2023-02-07T08:00:24.209Z,12.90
2023-02-07T08:02:52.428Z,14.15
2023-02-07T08:05:20.135Z,12.75
2023-02-07T08:07:47.750Z,14.50
2023-02-07T08:10:18.583Z,14.15
2023-02-07T08:12:46.424Z,12.52
2023-02-07T08:15:14.525Z,15.07
2023-02-07T08:17:42.572Z,14.48
2023-02-07T08:20:12.715Z,16.77
2023-02-07T08:22:40.742Z,11.00
2023-02-07T08:25:09.086Z,17.27
2023-02-07T08:27:37.025Z,13.60
2023-02-07T08:30:06.930Z,12.05
2023-02-07T08:32:36.559Z,13.98
2023-02-07T08:35:04.292Z,11.45
2023-02-07T08:37:31.952Z,14.10
2023-02-07T08:40:00.515Z,17.85
2023-02-07T08:42:28.673Z,10.68
2023-02-07T08:44:56.983Z,12.50
2023-02-07T08:47:24.979Z,12.60
2023-02-07T08:49:52.657Z,12.07
2023-02-07T08:52:20.355Z,15.27
2023-02-07T08:54:52.547Z,10.52
2023-02-07T08:57:23.221Z,9.93
2023-02-07T08:59:52.607Z,11.90
2023-02-07T09:02:20.742Z,8.27
2023-02-07T09:04:48.444Z,11.10
2023-02-07T09:07:16.498Z,11.30
2023-02-07T09:09:44.280Z,12.07
2023-02-07T09:12:13.024Z,7.95
2023-02-07T09:14:41.302Z,9.98
2023-02-07T09:17:09.220Z,15.57
2023-02-07T09:19:37.245Z,9.60
2023-02-07T09:22:05.773Z,12.55
2023-02-07T09:24:33.725Z,11.15
2023-02-07T09:27:01.985Z,14.75
2023-02-07T09:29:30.027Z,8.13
2023-02-07T09:31:57.839Z,13.90
2023-02-07T09:34:25.663Z,9.00
2023-02-07T09:36:53.877Z,11.10
2023-02-07T09:39:21.561Z,8.25
2023-02-07T09:42:07.705Z,7.82
2023-02-07T09:44:46.470Z,9.63
2023-02-07T09:47:20.145Z,14.00
2023-02-07T09:49:51.214Z,7.65
2023-02-07T09:52:24.255Z,10.83
2023-02-07T09:54:55.706Z,8.00
2023-02-07T09:57:37.798Z,9.82
2023-02-07T10:00:19.494Z,8.77
2023-02-07T10:05:37.021Z,7.90
2023-02-07T10:08:05.043Z,7.72
2023-02-07T10:11:11.484Z,7.55
2023-02-07T10:13:39.357Z,9.43
2023-02-07T10:16:06.951Z,8.77
2023-02-07T10:18:49.780Z,6.72
2023-02-07T10:21:20.361Z,7.20
2023-02-07T10:24:04.258Z,8.23
2023-02-07T10:26:42.274Z,6.78
2023-02-07T10:29:35.430Z,6.37
2023-02-07T10:32:21.938Z,11.90
2023-02-07T10:34:53.824Z,7.45
2023-02-07T10:37:28.947Z,8.43
2023-02-07T10:40:03.293Z,11.75
2023-02-07T10:42:36.750Z,9.80
2023-02-07T10:45:05.405Z,6.53
2023-02-07T10:47:38.908Z,6.53
2023-02-07T10:50:18.568Z,6.53
2023-02-07T10:52:56.427Z,11.55
2023-02-07T10:55:46.519Z,6.93
2023-02-07T10:58:24.090Z,5.95
2023-02-07T11:00:54.107Z,7.68
2023-02-07T11:03:24.346Z,9.75
2023-02-07T11:06:08.004Z,7.22
2023-02-07T11:08:38.198Z,6.97
2023-02-07T11:11:38.212Z,4.68
2023-02-07T11:14:07.477Z,6.55
2023-02-07T11:16:35.390Z,13.07
2023-02-07T11:19:06.394Z,8.93
2023-02-07T11:21:45.066Z,7.07
2023-02-07T11:24:34.458Z,9.40
2023-02-07T11:27:05.955Z,6.43
2023-02-07T11:30:05.729Z,8.88
2023-02-07T11:32:38.530Z,6.72
2023-02-07T11:35:18.278Z,5.53
2023-02-07T11:37:58.199Z,7.05
2023-02-07T11:40:38.998Z,6.22
2023-02-07T11:43:16.220Z,8.13
2023-02-07T11:49:38.279Z,7.20
2023-02-07T11:52:07.396Z,7.28
2023-02-07T11:54:36.992Z,9.35
2023-02-07T11:57:06.610Z,11.15
2023-02-07T11:59:34.794Z,10.55
2023-02-07T12:02:20.010Z,8.00
2023-02-07T12:04:48.174Z,6.45
2023-02-07T12:07:21.628Z,8.40
2023-02-07T12:10:02.876Z,7.18
2023-02-07T12:12:56.939Z,7.53
2023-02-07T12:15:39.845Z,6.25
2023-02-07T12:18:14.737Z,8.57
2023-02-07T12:21:03.935Z,9.00
2023-02-07T12:23:49.320Z,6.10
2023-02-07T12:26:25.141Z,6.90
2023-02-07T12:29:15.790Z,12.35
2023-02-07T12:32:06.341Z,7.10
2023-02-07T12:34:37.402Z,9.20
2023-02-07T12:37:47.400Z,9.82
2023-02-07T12:40:40.382Z,6.57
2023-02-07T12:43:25.374Z,9.50
2023-02-07T12:46:01.911Z,8.38
2023-02-07T12:49:01.009Z,7.45
2023-02-07T12:52:03.738Z,6.85
2023-02-07T12:55:08.082Z,7.60
2023-02-07T12:57:47.705Z,7.37
2023-02-07T13:00:33.430Z,10.38
2023-02-07T13:03:27.102Z,6.47
2023-02-07T13:06:10.130Z,6.57
2023-02-07T13:09:18.333Z,6.87
2023-02-07T13:12:01.073Z,7.47
2023-02-07T13:14:44.173Z,10.13
2023-02-07T13:17:26.594Z,7.10
2023-02-07T13:20:22.069Z,7.22
2023-02-07T13:23:09.700Z,8.75
2023-02-07T13:25:42.156Z,18.17
2023-02-07T13:28:27.313Z,10.50
2023-02-07T13:30:57.442Z,9.30
2023-02-07T13:33:39.937Z,18.55
2023-02-07T13:36:17.753Z,13.00
2023-02-07T13:38:59.990Z,14.70
2023-02-07T13:41:55.083Z,7.57
2023-02-07T13:44:27.104Z,10.35
2023-02-07T13:47:07.031Z,25.70
2023-02-07T13:49:37.737Z,10.35
2023-02-07T13:52:13.050Z,20.65
2023-02-07T13:55:03.773Z,9.02
2023-02-07T13:57:53.036Z,11.02
2023-02-07T14:00:25.139Z,8.45
2023-02-07T14:05:36.083Z,11.50
2023-02-07T14:08:22.156Z,9.77
2023-02-07T14:10:56.758Z,12.45
2023-02-07T14:13:27.304Z,20.95
2023-02-07T14:16:12.818Z,27.35
2023-02-07T14:18:50.141Z,9.60
2023-02-07T14:21:21.244Z,9.25
2023-02-07T14:24:06.030Z,18.42
2023-02-07T14:26:39.932Z,26.20
2023-02-07T14:29:22.915Z,16.15
2023-02-07T14:31:56.341Z,16.60
2023-02-07T14:34:28.749Z,16.02
2023-02-07T14:36:57.200Z,17.50
2023-02-07T14:39:33.558Z,16.80
2023-02-07T14:42:11.497Z,18.42
2023-02-07T14:44:43.691Z,18.75
2023-02-07T14:47:23.883Z,18.23
2023-02-07T14:49:55.461Z,36.22
2023-02-07T14:52:26.279Z,33.70
2023-02-07T14:54:59.902Z,21.63
2023-02-07T14:57:46.076Z,14.65
2023-02-07T15:00:13.907Z,10.18
2023-02-07T15:02:51.954Z,10.70
2023-02-07T15:05:25.857Z,10.02
2023-02-07T15:08:08.417Z,9.05
2023-02-07T15:10:44.104Z,8.57
2023-02-07T15:13:21.323Z,11.85
2023-02-07T15:16:07.401Z,13.23
2023-02-07T15:19:01.079Z,11.73
2023-02-07T15:21:34.800Z,11.12
2023-02-07T15:24:50.929Z,8.70
2023-02-07T15:27:23.014Z,10.30
2023-02-07T15:30:08.391Z,9.48
2023-02-07T15:32:48.419Z,10.70
2023-02-07T15:35:22.657Z,8.50
2023-02-07T15:37:52.025Z,7.87
2023-02-07T15:40:25.622Z,9.35
2023-02-07T15:42:57.311Z,11.10
2023-02-07T15:45:29.079Z,9.90
2023-02-07T15:50:35.818Z,16.10
2023-02-07T15:53:10.988Z,9.13
2023-02-07T15:55:45.655Z,11.77
2023-02-07T15:58:29.120Z,12.60
2023-02-07T16:01:02.571Z,12.68
2023-02-07T16:03:35.815Z,11.57
2023-02-07T16:06:20.869Z,27.13
2023-02-07T16:08:54.579Z,22.00
2023-02-07T16:11:22.159Z,41.20
2023-02-07T16:13:59.389Z,28.85
2023-02-07T16:16:33.275Z,13.90
2023-02-07T16:19:14.946Z,20.48
2023-02-07T16:21:50.490Z,20.42
2023-02-07T16:24:23.006Z,18.48
2023-02-07T16:26:51.350Z,13.10
2023-02-07T16:29:22.889Z,13.75
2023-02-07T16:31:52.089Z,11.38
2023-02-07T16:34:21.104Z,10.20
2023-02-07T16:36:51.399Z,12.60
2023-02-07T16:39:19.174Z,10.75
2023-02-07T16:42:03.534Z,26.27
2023-02-07T16:44:34.432Z,10.35
2023-02-07T16:47:02.851Z,16.20
2023-02-07T16:49:31.937Z,10.77
2023-02-07T16:51:59.945Z,12.48
2023-02-07T16:54:27.886Z,11.15
2023-02-07T16:56:58.354Z,12.43
2023-02-07T16:59:26.116Z,12.85
2023-02-07T17:01:54.667Z,11.18
2023-02-07T17:04:23.663Z,11.23
2023-02-07T17:06:51.524Z,15.05
2023-02-07T17:09:25.129Z,68.60
2023-02-07T17:11:54.259Z,96.65
2023-02-07T17:14:22.435Z,30.67
2023-02-07T17:16:50.232Z,33.85
2023-02-07T17:19:24.014Z,14.07
2023-02-07T17:21:52.786Z,10.50
2023-02-07T17:24:20.465Z,11.95
2023-02-07T17:26:51.816Z,12.13
2023-02-07T17:29:20.214Z,17.37
2023-02-07T17:31:48.852Z,13.65
2023-02-07T17:34:17.156Z,17.00
2023-02-07T17:36:50.026Z,13.30
2023-02-07T17:39:19.285Z,22.48
2023-02-07T17:41:48.504Z,38.28
2023-02-07T17:44:21.233Z,12.63
2023-02-07T17:46:49.599Z,10.85
2023-02-07T17:49:18.018Z,9.40
2023-02-07T17:51:46.180Z,9.70
2023-02-07T17:54:14.688Z,15.95
2023-02-07T17:56:42.490Z,14.57
2023-02-07T17:59:21.177Z,10.32
2023-02-07T18:01:49.726Z,14.07
2023-02-07T18:04:18.127Z,11.65
2023-02-07T18:06:45.989Z,14.20
2023-02-07T18:09:18.695Z,14.80
2023-02-07T18:11:47.167Z,13.50
2023-02-07T18:14:15.101Z,18.27
2023-02-07T18:16:43.632Z,21.60
2023-02-07T18:19:15.505Z,16.65
2023-02-07T18:21:44.707Z,21.12
2023-02-07T18:24:13.176Z,15.68
2023-02-07T18:26:41.609Z,23.83
2023-02-07T18:29:09.489Z,30.60
2023-02-07T18:31:37.433Z,21.80
2023-02-07T18:34:05.285Z,15.35
2023-02-07T18:36:40.302Z,23.35
2023-02-07T18:39:10.274Z,28.45
2023-02-07T18:41:38.625Z,18.67
2023-02-07T18:44:06.855Z,29.70
2023-02-07T18:46:35.164Z,34.17
2023-02-07T18:49:03.343Z,22.98
2023-02-07T18:51:31.328Z,29.33
2023-02-07T18:53:59.553Z,29.42
2023-02-07T18:56:27.677Z,22.42
2023-02-07T18:58:59.014Z,27.98
2023-02-07T19:01:30.420Z,28.48
2023-02-07T19:04:01.402Z,32.42
2023-02-07T19:09:00.511Z,20.15
2023-02-07T19:11:28.610Z,27.45
2023-02-07T19:13:56.897Z,17.83
2023-02-07T19:16:25.005Z,19.87
2023-02-07T19:18:53.467Z,21.40
2023-02-07T19:21:27.028Z,17.42
2023-02-07T19:23:57.179Z,15.60
2023-02-07T19:26:25.979Z,19.70
2023-02-07T19:28:54.019Z,22.62
2023-02-07T19:31:22.516Z,24.15
2023-02-07T19:33:51.043Z,22.52
2023-02-07T19:36:19.969Z,29.33
2023-02-07T19:38:48.816Z,28.00
2023-02-07T19:41:19.377Z,24.30
2023-02-07T19:43:47.802Z,32.85
2023-02-07T19:46:15.969Z,19.35
2023-02-07T19:48:45.562Z,23.00
2023-02-07T19:51:19.891Z,18.33
2023-02-07T19:53:51.177Z,21.65
2023-02-07T19:56:21.075Z,19.73
2023-02-07T19:58:51.615Z,18.37
2023-02-07T20:01:20.677Z,20.80
2023-02-07T20:03:53.170Z,22.27
2023-02-07T20:06:24.697Z,19.10
2023-02-07T20:08:52.880Z,17.65
2023-02-07T20:11:23.074Z,18.90
2023-02-07T20:13:55.389Z,17.62
2023-02-07T20:16:25.476Z,21.02
2023-02-07T20:18:53.744Z,21.30
2023-02-07T20:21:25.067Z,19.85
2023-02-07T20:23:55.436Z,19.52
2023-02-07T20:26:31.453Z,21.20
2023-02-07T20:29:01.845Z,20.58
2023-02-07T20:31:31.989Z,21.90
2023-02-07T20:34:02.114Z,18.87
2023-02-07T20:36:33.684Z,23.58
2023-02-07T20:39:02.149Z,21.23
2023-02-07T20:41:30.249Z,21.30
2023-02-07T20:44:05.063Z,23.38
2023-02-07T20:46:35.646Z,21.80
2023-02-07T20:49:07.804Z,21.42
2023-02-07T20:51:36.095Z,19.92
2023-02-07T20:54:05.865Z,22.58
2023-02-07T20:56:34.752Z,20.77
2023-02-07T20:59:04.600Z,21.60
2023-02-07T21:01:34.069Z,22.23
2023-02-07T21:04:05.204Z,19.65
2023-02-07T21:06:34.781Z,18.23
2023-02-07T21:09:06.933Z,22.33
2023-02-07T21:11:41.276Z,19.80
2023-02-07T21:14:13.835Z,18.80
2023-02-07T21:16:41.990Z,20.50
2023-02-07T21:19:10.647Z,19.10
2023-02-07T21:21:39.825Z,21.40
2023-02-07T21:24:07.928Z,28.87
2023-02-07T21:26:36.191Z,22.65
2023-02-07T21:29:05.969Z,28.15
2023-02-07T21:31:36.096Z,18.75
2023-02-07T21:34:05.427Z,21.95
2023-02-07T21:36:38.034Z,23.58
2023-02-07T21:39:10.486Z,26.15
2023-02-07T21:41:41.265Z,19.92
2023-02-07T21:44:10.815Z,21.87
2023-02-07T21:46:41.469Z,24.80
2023-02-07T21:49:16.072Z,24.20
2023-02-07T21:51:46.277Z,21.60
2023-02-07T21:54:14.439Z,23.73
2023-02-07T21:56:43.474Z,21.52
2023-02-07T21:59:14.885Z,23.70
2023-02-07T22:01:44.506Z,25.30
2023-02-07T22:04:14.359Z,28.30
2023-02-07T22:06:44.039Z,22.75
2023-02-07T22:09:14.028Z,20.85
2023-02-07T22:11:42.368Z,27.17
2023-02-07T22:14:12.078Z,23.52
2023-02-07T22:16:40.569Z,24.02
2023-02-07T22:19:11.638Z,24.42
2023-02-07T22:21:40.328Z,22.77
2023-02-07T22:24:10.013Z,26.77
2023-02-07T22:26:37.681Z,21.67
2023-02-07T22:29:06.347Z,23.17
2023-02-07T22:31:37.650Z,25.52
2023-02-07T22:34:11.096Z,25.73
2023-02-07T22:36:43.070Z,22.77
2023-02-07T22:39:12.439Z,20.27
2023-02-07T22:41:40.499Z,26.58
2023-02-07T22:44:08.281Z,22.83
2023-02-07T22:46:35.856Z,28.73
2023-02-07T22:49:04.288Z,27.02
2023-02-07T22:51:35.194Z,21.83
2023-02-07T22:54:06.388Z,28.02
2023-02-07T22:56:36.293Z,22.03
2023-02-07T22:59:05.296Z,22.48
2023-02-07T23:01:36.661Z,22.10
2023-02-07T23:04:06.475Z,25.77
2023-02-07T23:06:34.079Z,24.25
2023-02-07T23:09:01.986Z,24.60
2023-02-07T23:11:29.953Z,24.60
2023-02-07T23:13:58.089Z,26.60
2023-02-07T23:16:27.429Z,24.52
2023-02-07T23:18:56.871Z,25.25
2023-02-07T23:21:26.245Z,31.05
2023-02-07T23:23:54.412Z,25.52
2023-02-07T23:26:24.203Z,23.73
2023-02-07T23:28:52.730Z,27.48
2023-02-07T23:31:22.005Z,24.50
2023-02-07T23:33:50.645Z,26.12
2023-02-07T23:36:18.759Z,27.77
2023-02-07T23:38:47.909Z,28.52
2023-02-07T23:41:16.809Z,23.70
2023-02-07T23:43:44.548Z,20.95
2023-02-07T23:46:14.132Z,21.42
2023-02-07T23:48:42.191Z,25.48
2023-02-07T23:51:11.448Z,23.15
2023-02-07T23:53:39.374Z,22.67
2023-02-07T23:56:07.946Z,26.33
2023-02-07T23:58:35.938Z,22.67
